sensor_id;sensor_type;location;lat;lon;timestamp;temperature;humidity
8820;DHT22;4446;50.876;4.736;2022-10-31T00:02:12;12.90;99.90
8820;DHT22;4446;50.876;4.736;2022-10-31T00:04:39;12.90;99.90
8820;DHT22;4446;50.876;4.736;2022-10-31T00:07:06;12.90;99.90
8820;DHT22;4446;50.876;4.736;2022-10-31T00:09:33;12.90;99.90
8820;DHT22;4446;50.876;4.736;2022-10-31T00:12:02;12.90;99.90
8820;DHT22;4446;50.876;4.736;2022-10-31T00:14:29;12.70;99.90
8820;DHT22;4446;50.876;4.736;2022-10-31T00:16:56;12.70;99.90
8820;DHT22;4446;50.876;4.736;2022-10-31T00:19:23;12.70;99.90
8820;DHT22;4446;50.876;4.736;2022-10-31T00:21:51;12.70;99.90
8820;DHT22;4446;50.876;4.736;2022-10-31T00:24:19;12.70;99.90
8820;DHT22;4446;50.876;4.736;2022-10-31T00:26:46;12.60;99.90
8820;DHT22;4446;50.876;4.736;2022-10-31T00:29:14;12.60;99.90
8820;DHT22;4446;50.876;4.736;2022-10-31T00:31:41;12.50;99.90
8820;DHT22;4446;50.876;4.736;2022-10-31T00:34:08;12.50;99.90
8820;DHT22;4446;50.876;4.736;2022-10-31T00:36:35;12.40;99.90
8820;DHT22;4446;50.876;4.736;2022-10-31T00:39:03;12.40;99.90
8820;DHT22;4446;50.876;4.736;2022-10-31T00:41:29;12.40;99.90
8820;DHT22;4446;50.876;4.736;2022-10-31T00:43:57;12.30;99.90
8820;DHT22;4446;50.876;4.736;2022-10-31T00:46:25;12.30;99.90
8820;DHT22;4446;50.876;4.736;2022-10-31T00:48:52;12.30;99.90
8820;DHT22;4446;50.876;4.736;2022-10-31T00:51:19;12.30;99.90
8820;DHT22;4446;50.876;4.736;2022-10-31T00:53:46;12.30;99.90
8820;DHT22;4446;50.876;4.736;2022-10-31T00:56:13;12.40;99.90
8820;DHT22;4446;50.876;4.736;2022-10-31T00:58:40;12.30;99.90
8820;DHT22;4446;50.876;4.736;2022-10-31T01:01:07;12.30;99.90
8820;DHT22;4446;50.876;4.736;2022-10-31T01:03:35;12.20;99.90
8820;DHT22;4446;50.876;4.736;2022-10-31T01:06:06;12.20;99.90
8820;DHT22;4446;50.876;4.736;2022-10-31T01:08:34;12.20;99.90
8820;DHT22;4446;50.876;4.736;2022-10-31T01:11:05;12.20;99.90
8820;DHT22;4446;50.876;4.736;2022-10-31T01:13:33;12.10;99.90
8820;DHT22;4446;50.876;4.736;2022-10-31T01:16:01;12.10;99.90
8820;DHT22;4446;50.876;4.736;2022-10-31T01:18:29;12.10;99.90
8820;DHT22;4446;50.876;4.736;2022-10-31T01:21:06;12.10;99.90
8820;DHT22;4446;50.876;4.736;2022-10-31T01:23:34;12.10;99.90
8820;DHT22;4446;50.876;4.736;2022-10-31T01:26:05;12.00;99.90
8820;DHT22;4446;50.876;4.736;2022-10-31T01:28:33;12.10;99.90
8820;DHT22;4446;50.876;4.736;2022-10-31T01:31:01;12.10;99.90
8820;DHT22;4446;50.876;4.736;2022-10-31T01:33:28;12.00;99.90
8820;DHT22;4446;50.876;4.736;2022-10-31T01:35:55;12.00;99.90
8820;DHT22;4446;50.876;4.736;2022-10-31T01:38:24;11.90;99.90
8820;DHT22;4446;50.876;4.736;2022-10-31T01:40:51;11.90;99.90
8820;DHT22;4446;50.876;4.736;2022-10-31T01:43:19;11.90;99.90
8820;DHT22;4446;50.876;4.736;2022-10-31T01:45:51;11.80;99.90
8820;DHT22;4446;50.876;4.736;2022-10-31T01:48:21;11.80;99.90
8820;DHT22;4446;50.876;4.736;2022-10-31T01:50:53;11.80;99.90
8820;DHT22;4446;50.876;4.736;2022-10-31T01:53:21;11.70;99.90
8820;DHT22;4446;50.876;4.736;2022-10-31T01:55:50;11.70;99.90
8820;DHT22;4446;50.876;4.736;2022-10-31T01:58:21;11.70;99.90
8820;DHT22;4446;50.876;4.736;2022-10-31T02:00:52;11.70;99.90
8820;DHT22;4446;50.876;4.736;2022-10-31T02:03:21;11.60;99.90
8820;DHT22;4446;50.876;4.736;2022-10-31T02:05:49;11.60;99.90
8820;DHT22;4446;50.876;4.736;2022-10-31T02:08:19;11.60;99.90
8820;DHT22;4446;50.876;4.736;2022-10-31T02:10:50;11.50;99.90
8820;DHT22;4446;50.876;4.736;2022-10-31T02:13:17;11.50;99.90
8820;DHT22;4446;50.876;4.736;2022-10-31T02:15:48;11.40;99.90
8820;DHT22;4446;50.876;4.736;2022-10-31T02:18:16;11.40;99.90
8820;DHT22;4446;50.876;4.736;2022-10-31T02:20:50;11.30;99.90
8820;DHT22;4446;50.876;4.736;2022-10-31T02:26:43;11.20;99.90
8820;DHT22;4446;50.876;4.736;2022-10-31T02:32:19;11.10;99.90
8820;DHT22;4446;50.876;4.736;2022-10-31T02:34:52;11.00;99.90
8820;DHT22;4446;50.876;4.736;2022-10-31T02:37:27;11.00;99.90
8820;DHT22;4446;50.876;4.736;2022-10-31T02:40:04;11.00;99.90
8820;DHT22;4446;50.876;4.736;2022-10-31T02:42:36;11.00;99.90
8820;DHT22;4446;50.876;4.736;2022-10-31T02:45:09;11.00;99.90
8820;DHT22;4446;50.876;4.736;2022-10-31T02:47:42;11.00;99.90
8820;DHT22;4446;50.876;4.736;2022-10-31T02:50:13;11.00;99.90
8820;DHT22;4446;50.876;4.736;2022-10-31T02:52:41;11.10;99.90
8820;DHT22;4446;50.876;4.736;2022-10-31T02:55:11;11.10;99.90
8820;DHT22;4446;50.876;4.736;2022-10-31T02:57:40;11.10;99.90
8820;DHT22;4446;50.876;4.736;2022-10-31T03:00:09;11.10;99.90
8820;DHT22;4446;50.876;4.736;2022-10-31T03:02:58;11.10;99.90
8820;DHT22;4446;50.876;4.736;2022-10-31T03:05:45;11.10;99.90
8820;DHT22;4446;50.876;4.736;2022-10-31T03:08:21;11.10;99.90
8820;DHT22;4446;50.876;4.736;2022-10-31T03:10:53;11.00;99.90
8820;DHT22;4446;50.876;4.736;2022-10-31T03:13:28;11.00;99.90
8820;DHT22;4446;50.876;4.736;2022-10-31T03:16:05;11.00;99.90
8820;DHT22;4446;50.876;4.736;2022-10-31T03:18:39;10.90;99.90
8820;DHT22;4446;50.876;4.736;2022-10-31T03:21:10;10.90;99.90
8820;DHT22;4446;50.876;4.736;2022-10-31T03:23:39;10.90;99.90
8820;DHT22;4446;50.876;4.736;2022-10-31T03:26:08;11.00;99.90
8820;DHT22;4446;50.876;4.736;2022-10-31T03:28:40;11.00;99.90
8820;DHT22;4446;50.876;4.736;2022-10-31T03:31:10;11.00;99.90
8820;DHT22;4446;50.876;4.736;2022-10-31T03:33:42;10.90;99.90
8820;DHT22;4446;50.876;4.736;2022-10-31T03:36:12;11.00;99.90
8820;DHT22;4446;50.876;4.736;2022-10-31T03:38:41;10.90;99.90
8820;DHT22;4446;50.876;4.736;2022-10-31T03:41:13;10.90;99.90
8820;DHT22;4446;50.876;4.736;2022-10-31T03:43:42;10.90;99.90
8820;DHT22;4446;50.876;4.736;2022-10-31T03:46:11;10.90;99.90
8820;DHT22;4446;50.876;4.736;2022-10-31T03:48:38;10.90;99.90
8820;DHT22;4446;50.876;4.736;2022-10-31T03:51:10;10.90;99.90
8820;DHT22;4446;50.876;4.736;2022-10-31T03:53:45;11.00;99.90
8820;DHT22;4446;50.876;4.736;2022-10-31T03:56:19;11.10;99.90
8820;DHT22;4446;50.876;4.736;2022-10-31T03:58:51;11.20;99.90
8820;DHT22;4446;50.876;4.736;2022-10-31T04:01:20;11.30;99.90
8820;DHT22;4446;50.876;4.736;2022-10-31T04:03:48;11.30;99.90
8820;DHT22;4446;50.876;4.736;2022-10-31T04:06:18;11.40;99.90
8820;DHT22;4446;50.876;4.736;2022-10-31T04:08:49;11.40;99.90
8820;DHT22;4446;50.876;4.736;2022-10-31T04:11:21;11.40;99.90
8820;DHT22;4446;50.876;4.736;2022-10-31T04:13:50;11.30;99.90
8820;DHT22;4446;50.876;4.736;2022-10-31T04:16:18;11.30;99.90
8820;DHT22;4446;50.876;4.736;2022-10-31T04:18:46;11.20;99.90
8820;DHT22;4446;50.876;4.736;2022-10-31T04:21:13;11.30;99.90
8820;DHT22;4446;50.876;4.736;2022-10-31T04:23:42;11.20;99.90
8820;DHT22;4446;50.876;4.736;2022-10-31T04:26:11;11.20;99.90
8820;DHT22;4446;50.876;4.736;2022-10-31T04:28:38;11.10;99.90
8820;DHT22;4446;50.876;4.736;2022-10-31T04:31:05;11.10;99.90
8820;DHT22;4446;50.876;4.736;2022-10-31T04:33:32;11.10;99.90
8820;DHT22;4446;50.876;4.736;2022-10-31T04:35:59;11.10;99.90
8820;DHT22;4446;50.876;4.736;2022-10-31T04:38:26;11.10;99.90
8820;DHT22;4446;50.876;4.736;2022-10-31T04:40:55;11.20;99.90
8820;DHT22;4446;50.876;4.736;2022-10-31T04:43:22;11.20;99.90
8820;DHT22;4446;50.876;4.736;2022-10-31T04:45:49;11.30;99.90
8820;DHT22;4446;50.876;4.736;2022-10-31T04:48:16;11.40;99.90
8820;DHT22;4446;50.876;4.736;2022-10-31T04:50:43;11.40;99.90
8820;DHT22;4446;50.876;4.736;2022-10-31T04:53:10;11.40;99.90
8820;DHT22;4446;50.876;4.736;2022-10-31T04:55:37;11.50;99.90
8820;DHT22;4446;50.876;4.736;2022-10-31T04:58:05;11.50;99.90
8820;DHT22;4446;50.876;4.736;2022-10-31T05:00:32;11.50;99.90
8820;DHT22;4446;50.876;4.736;2022-10-31T05:02:59;11.60;99.90
8820;DHT22;4446;50.876;4.736;2022-10-31T05:05:29;11.50;99.90
8820;DHT22;4446;50.876;4.736;2022-10-31T05:07:56;11.50;99.90
8820;DHT22;4446;50.876;4.736;2022-10-31T05:10:25;11.50;99.90
8820;DHT22;4446;50.876;4.736;2022-10-31T05:12:54;11.50;99.90
8820;DHT22;4446;50.876;4.736;2022-10-31T05:15:24;11.50;99.90
8820;DHT22;4446;50.876;4.736;2022-10-31T05:17:52;11.50;99.90
8820;DHT22;4446;50.876;4.736;2022-10-31T05:20:21;11.40;99.90
8820;DHT22;4446;50.876;4.736;2022-10-31T05:22:50;11.40;99.90
8820;DHT22;4446;50.876;4.736;2022-10-31T05:25:18;11.40;99.90
8820;DHT22;4446;50.876;4.736;2022-10-31T05:27:47;11.40;99.90
8820;DHT22;4446;50.876;4.736;2022-10-31T05:30:18;11.40;99.90
8820;DHT22;4446;50.876;4.736;2022-10-31T05:32:48;11.30;99.90
8820;DHT22;4446;50.876;4.736;2022-10-31T05:35:17;11.40;99.90
8820;DHT22;4446;50.876;4.736;2022-10-31T05:37:45;11.40;99.90
8820;DHT22;4446;50.876;4.736;2022-10-31T05:40:13;11.40;99.90
8820;DHT22;4446;50.876;4.736;2022-10-31T05:42:41;11.50;99.90
8820;DHT22;4446;50.876;4.736;2022-10-31T05:45:09;11.50;99.90
8820;DHT22;4446;50.876;4.736;2022-10-31T05:47:37;11.50;99.90
8820;DHT22;4446;50.876;4.736;2022-10-31T05:50:07;11.50;99.90
8820;DHT22;4446;50.876;4.736;2022-10-31T05:52:34;11.60;99.90
8820;DHT22;4446;50.876;4.736;2022-10-31T05:55:01;11.50;99.90
8820;DHT22;4446;50.876;4.736;2022-10-31T05:57:29;11.50;99.90
8820;DHT22;4446;50.876;4.736;2022-10-31T05:59:56;11.60;99.90
8820;DHT22;4446;50.876;4.736;2022-10-31T06:02:23;11.50;99.90
8820;DHT22;4446;50.876;4.736;2022-10-31T06:04:50;11.50;99.90
8820;DHT22;4446;50.876;4.736;2022-10-31T06:07:19;11.40;99.90
8820;DHT22;4446;50.876;4.736;2022-10-31T06:09:46;11.40;99.90
8820;DHT22;4446;50.876;4.736;2022-10-31T06:12:13;11.40;99.90
8820;DHT22;4446;50.876;4.736;2022-10-31T06:14:40;11.40;99.90
8820;DHT22;4446;50.876;4.736;2022-10-31T06:17:07;11.40;99.90
8820;DHT22;4446;50.876;4.736;2022-10-31T06:19:34;11.40;99.90
8820;DHT22;4446;50.876;4.736;2022-10-31T06:22:01;11.40;99.90
8820;DHT22;4446;50.876;4.736;2022-10-31T06:24:29;11.40;99.90
8820;DHT22;4446;50.876;4.736;2022-10-31T06:26:56;11.40;99.90
8820;DHT22;4446;50.876;4.736;2022-10-31T06:29:23;11.40;99.90
8820;DHT22;4446;50.876;4.736;2022-10-31T06:31:51;11.40;99.90
8820;DHT22;4446;50.876;4.736;2022-10-31T06:34:18;11.40;99.90
8820;DHT22;4446;50.876;4.736;2022-10-31T06:36:45;11.50;99.90
8820;DHT22;4446;50.876;4.736;2022-10-31T06:39:13;11.50;99.90
8820;DHT22;4446;50.876;4.736;2022-10-31T06:41:41;11.50;99.90
8820;DHT22;4446;50.876;4.736;2022-10-31T06:44:08;11.60;99.90
8820;DHT22;4446;50.876;4.736;2022-10-31T06:46:35;11.60;99.90
8820;DHT22;4446;50.876;4.736;2022-10-31T06:49:02;11.60;99.90
8820;DHT22;4446;50.876;4.736;2022-10-31T06:51:29;11.70;99.90
8820;DHT22;4446;50.876;4.736;2022-10-31T06:53:56;11.70;99.90
8820;DHT22;4446;50.876;4.736;2022-10-31T06:56:23;11.70;99.90
8820;DHT22;4446;50.876;4.736;2022-10-31T06:58:51;11.70;99.90
8820;DHT22;4446;50.876;4.736;2022-10-31T07:01:18;11.70;99.90
8820;DHT22;4446;50.876;4.736;2022-10-31T07:03:45;11.70;99.90
8820;DHT22;4446;50.876;4.736;2022-10-31T07:06:12;11.80;99.90
8820;DHT22;4446;50.876;4.736;2022-10-31T07:08:39;11.80;99.90
8820;DHT22;4446;50.876;4.736;2022-10-31T07:11:06;11.90;99.90
8820;DHT22;4446;50.876;4.736;2022-10-31T07:13:34;12.00;99.90
8820;DHT22;4446;50.876;4.736;2022-10-31T07:16:04;12.00;99.90
8820;DHT22;4446;50.876;4.736;2022-10-31T07:18:32;12.10;99.90
8820;DHT22;4446;50.876;4.736;2022-10-31T07:20:59;12.10;99.90
8820;DHT22;4446;50.876;4.736;2022-10-31T07:23:26;12.10;99.90
8820;DHT22;4446;50.876;4.736;2022-10-31T07:25:55;12.20;99.90
8820;DHT22;4446;50.876;4.736;2022-10-31T07:28:22;12.20;99.90
8820;DHT22;4446;50.876;4.736;2022-10-31T07:30:50;12.20;99.90
8820;DHT22;4446;50.876;4.736;2022-10-31T07:33:19;12.30;99.90
8820;DHT22;4446;50.876;4.736;2022-10-31T07:35:46;12.30;99.90
8820;DHT22;4446;50.876;4.736;2022-10-31T07:38:14;12.40;99.90
8820;DHT22;4446;50.876;4.736;2022-10-31T07:40:42;12.40;99.90
8820;DHT22;4446;50.876;4.736;2022-10-31T07:43:10;12.30;99.90
8820;DHT22;4446;50.876;4.736;2022-10-31T07:45:38;12.40;99.90
8820;DHT22;4446;50.876;4.736;2022-10-31T07:48:05;12.40;99.90
8820;DHT22;4446;50.876;4.736;2022-10-31T07:50:34;12.50;99.90
8820;DHT22;4446;50.876;4.736;2022-10-31T07:53:02;12.50;99.90
8820;DHT22;4446;50.876;4.736;2022-10-31T07:55:30;12.50;99.90
8820;DHT22;4446;50.876;4.736;2022-10-31T07:57:58;12.50;99.90
8820;DHT22;4446;50.876;4.736;2022-10-31T08:00:26;12.50;99.90
8820;DHT22;4446;50.876;4.736;2022-10-31T08:02:57;12.60;99.90
8820;DHT22;4446;50.876;4.736;2022-10-31T08:05:24;12.70;99.90
8820;DHT22;4446;50.876;4.736;2022-10-31T08:07:53;12.80;99.90
8820;DHT22;4446;50.876;4.736;2022-10-31T08:10:20;13.00;99.90
8820;DHT22;4446;50.876;4.736;2022-10-31T08:12:55;13.00;99.90
8820;DHT22;4446;50.876;4.736;2022-10-31T08:15:22;13.10;99.90
8820;DHT22;4446;50.876;4.736;2022-10-31T08:17:49;13.20;99.90
8820;DHT22;4446;50.876;4.736;2022-10-31T08:20:16;13.20;99.90
8820;DHT22;4446;50.876;4.736;2022-10-31T08:22:43;13.30;99.90
8820;DHT22;4446;50.876;4.736;2022-10-31T08:25:19;13.20;99.90
8820;DHT22;4446;50.876;4.736;2022-10-31T08:27:49;13.20;99.90
8820;DHT22;4446;50.876;4.736;2022-10-31T08:30:17;13.30;99.90
8820;DHT22;4446;50.876;4.736;2022-10-31T08:32:44;13.40;99.90
8820;DHT22;4446;50.876;4.736;2022-10-31T08:35:13;13.60;99.90
8820;DHT22;4446;50.876;4.736;2022-10-31T08:37:40;13.50;99.90
8820;DHT22;4446;50.876;4.736;2022-10-31T08:40:07;13.60;99.90
8820;DHT22;4446;50.876;4.736;2022-10-31T08:42:36;13.50;99.90
8820;DHT22;4446;50.876;4.736;2022-10-31T08:45:03;13.50;99.90
8820;DHT22;4446;50.876;4.736;2022-10-31T08:47:31;13.60;99.90
8820;DHT22;4446;50.876;4.736;2022-10-31T08:49:58;13.60;99.90
8820;DHT22;4446;50.876;4.736;2022-10-31T08:52:25;13.70;99.90
8820;DHT22;4446;50.876;4.736;2022-10-31T08:54:53;13.80;99.90
8820;DHT22;4446;50.876;4.736;2022-10-31T08:57:20;13.80;99.90
8820;DHT22;4446;50.876;4.736;2022-10-31T08:59:48;13.90;99.90
8820;DHT22;4446;50.876;4.736;2022-10-31T09:02:15;14.00;99.90
8820;DHT22;4446;50.876;4.736;2022-10-31T09:04:42;14.00;99.90
8820;DHT22;4446;50.876;4.736;2022-10-31T09:07:09;14.00;99.90
8820;DHT22;4446;50.876;4.736;2022-10-31T09:09:36;14.00;99.90
8820;DHT22;4446;50.876;4.736;2022-10-31T09:12:04;14.00;99.90
8820;DHT22;4446;50.876;4.736;2022-10-31T09:14:31;14.00;99.90
8820;DHT22;4446;50.876;4.736;2022-10-31T09:16:59;14.00;99.90
8820;DHT22;4446;50.876;4.736;2022-10-31T09:19:26;14.10;99.90
8820;DHT22;4446;50.876;4.736;2022-10-31T09:21:53;14.20;99.90
8820;DHT22;4446;50.876;4.736;2022-10-31T09:24:20;14.30;99.90
8820;DHT22;4446;50.876;4.736;2022-10-31T09:26:47;14.30;99.90
8820;DHT22;4446;50.876;4.736;2022-10-31T09:29:14;14.30;99.90
8820;DHT22;4446;50.876;4.736;2022-10-31T09:31:41;14.30;99.90
8820;DHT22;4446;50.876;4.736;2022-10-31T09:34:10;14.40;99.90
8820;DHT22;4446;50.876;4.736;2022-10-31T09:36:37;14.40;99.90
8820;DHT22;4446;50.876;4.736;2022-10-31T09:39:04;14.40;99.90
8820;DHT22;4446;50.876;4.736;2022-10-31T09:41:46;14.50;99.90
8820;DHT22;4446;50.876;4.736;2022-10-31T09:44:20;14.70;99.90
8820;DHT22;4446;50.876;4.736;2022-10-31T09:46:56;14.80;99.90
8820;DHT22;4446;50.876;4.736;2022-10-31T09:49:58;14.80;99.90
8820;DHT22;4446;50.876;4.736;2022-10-31T09:52:30;14.90;99.90
8820;DHT22;4446;50.876;4.736;2022-10-31T09:55:02;14.90;99.90
8820;DHT22;4446;50.876;4.736;2022-10-31T09:57:33;15.00;99.90
8820;DHT22;4446;50.876;4.736;2022-10-31T10:00:02;14.90;99.90
8820;DHT22;4446;50.876;4.736;2022-10-31T10:02:32;15.10;99.90
8820;DHT22;4446;50.876;4.736;2022-10-31T10:05:05;15.20;99.90
8820;DHT22;4446;50.876;4.736;2022-10-31T10:07:41;15.30;99.90
8820;DHT22;4446;50.876;4.736;2022-10-31T10:10:15;15.50;99.90
8820;DHT22;4446;50.876;4.736;2022-10-31T10:13:02;15.50;99.90
8820;DHT22;4446;50.876;4.736;2022-10-31T10:15:52;15.50;99.90
8820;DHT22;4446;50.876;4.736;2022-10-31T10:18:31;15.60;99.90
8820;DHT22;4446;50.876;4.736;2022-10-31T10:21:16;15.60;99.90
8820;DHT22;4446;50.876;4.736;2022-10-31T10:23:57;15.70;99.90
8820;DHT22;4446;50.876;4.736;2022-10-31T10:26:34;15.60;99.90
8820;DHT22;4446;50.876;4.736;2022-10-31T10:29:12;15.50;99.90
8820;DHT22;4446;50.876;4.736;2022-10-31T10:31:46;15.50;99.90
8820;DHT22;4446;50.876;4.736;2022-10-31T10:34:19;15.50;99.90
8820;DHT22;4446;50.876;4.736;2022-10-31T10:36:52;15.60;99.90
8820;DHT22;4446;50.876;4.736;2022-10-31T10:39:25;15.60;99.90
8820;DHT22;4446;50.876;4.736;2022-10-31T10:41:55;15.60;99.90
8820;DHT22;4446;50.876;4.736;2022-10-31T10:44:43;15.70;99.90
8820;DHT22;4446;50.876;4.736;2022-10-31T10:47:36;15.70;99.90
8820;DHT22;4446;50.876;4.736;2022-10-31T10:50:11;15.90;99.90
8820;DHT22;4446;50.876;4.736;2022-10-31T10:52:48;16.00;99.90
8820;DHT22;4446;50.876;4.736;2022-10-31T10:55:26;16.20;99.90
8820;DHT22;4446;50.876;4.736;2022-10-31T10:57:58;16.40;99.90
8820;DHT22;4446;50.876;4.736;2022-10-31T11:00:30;16.60;99.90
8820;DHT22;4446;50.876;4.736;2022-10-31T11:02:57;16.70;99.90
8820;DHT22;4446;50.876;4.736;2022-10-31T11:05:30;16.80;99.90
8820;DHT22;4446;50.876;4.736;2022-10-31T11:08:01;16.80;99.90
8820;DHT22;4446;50.876;4.736;2022-10-31T11:10:28;16.80;99.90
8820;DHT22;4446;50.876;4.736;2022-10-31T11:13:06;16.80;99.90
8820;DHT22;4446;50.876;4.736;2022-10-31T11:15:38;16.90;99.90
8820;DHT22;4446;50.876;4.736;2022-10-31T11:18:19;17.10;99.90
8820;DHT22;4446;50.876;4.736;2022-10-31T11:20:52;17.20;99.90
8820;DHT22;4446;50.876;4.736;2022-10-31T11:23:22;17.30;99.90
8820;DHT22;4446;50.876;4.736;2022-10-31T11:25:55;17.30;99.90
8820;DHT22;4446;50.876;4.736;2022-10-31T11:28:22;17.30;99.90
8820;DHT22;4446;50.876;4.736;2022-10-31T11:30:52;17.20;99.90
8820;DHT22;4446;50.876;4.736;2022-10-31T11:33:24;17.20;99.90
8820;DHT22;4446;50.876;4.736;2022-10-31T11:35:53;17.20;99.90
8820;DHT22;4446;50.876;4.736;2022-10-31T11:38:26;17.40;99.90
8820;DHT22;4446;50.876;4.736;2022-10-31T11:40:57;17.40;99.90
8820;DHT22;4446;50.876;4.736;2022-10-31T11:43:25;17.30;99.90
8820;DHT22;4446;50.876;4.736;2022-10-31T11:45:53;17.20;99.90
8820;DHT22;4446;50.876;4.736;2022-10-31T11:48:22;17.30;99.90
8820;DHT22;4446;50.876;4.736;2022-10-31T11:50:51;17.40;99.90
8820;DHT22;4446;50.876;4.736;2022-10-31T11:53:23;17.40;99.90
8820;DHT22;4446;50.876;4.736;2022-10-31T11:56:02;17.50;99.90
8820;DHT22;4446;50.876;4.736;2022-10-31T11:58:32;17.50;99.90
8820;DHT22;4446;50.876;4.736;2022-10-31T12:00:59;17.60;99.90
8820;DHT22;4446;50.876;4.736;2022-10-31T12:03:38;17.70;99.90
8820;DHT22;4446;50.876;4.736;2022-10-31T12:06:09;17.70;99.90
8820;DHT22;4446;50.876;4.736;2022-10-31T12:08:41;17.70;99.90
8820;DHT22;4446;50.876;4.736;2022-10-31T12:11:15;17.80;99.90
8820;DHT22;4446;50.876;4.736;2022-10-31T12:13:55;17.90;99.90
8820;DHT22;4446;50.876;4.736;2022-10-31T12:16:29;17.90;99.90
8820;DHT22;4446;50.876;4.736;2022-10-31T12:19:01;18.00;99.90
8820;DHT22;4446;50.876;4.736;2022-10-31T12:21:52;18.00;99.90
8820;DHT22;4446;50.876;4.736;2022-10-31T12:24:35;18.00;99.90
8820;DHT22;4446;50.876;4.736;2022-10-31T12:27:16;18.10;99.90
8820;DHT22;4446;50.876;4.736;2022-10-31T12:30:03;18.10;99.90
8820;DHT22;4446;50.876;4.736;2022-10-31T12:32:42;18.10;99.90
8820;DHT22;4446;50.876;4.736;2022-10-31T12:35:27;18.20;99.90
8820;DHT22;4446;50.876;4.736;2022-10-31T12:38:13;18.10;99.90
8820;DHT22;4446;50.876;4.736;2022-10-31T12:40:55;18.10;99.90
8820;DHT22;4446;50.876;4.736;2022-10-31T12:43:35;18.10;99.90
8820;DHT22;4446;50.876;4.736;2022-10-31T12:46:04;18.10;99.90
8820;DHT22;4446;50.876;4.736;2022-10-31T12:48:50;18.10;99.90
8820;DHT22;4446;50.876;4.736;2022-10-31T12:51:24;18.10;99.90
8820;DHT22;4446;50.876;4.736;2022-10-31T12:54:12;18.10;99.90
8820;DHT22;4446;50.876;4.736;2022-10-31T12:56:50;18.20;99.90
8820;DHT22;4446;50.876;4.736;2022-10-31T12:59:26;18.20;99.90
8820;DHT22;4446;50.876;4.736;2022-10-31T13:01:57;18.30;99.90
8820;DHT22;4446;50.876;4.736;2022-10-31T13:04:36;18.30;99.90
8820;DHT22;4446;50.876;4.736;2022-10-31T13:07:08;18.40;99.90
8820;DHT22;4446;50.876;4.736;2022-10-31T13:09:39;18.50;99.90
8820;DHT22;4446;50.876;4.736;2022-10-31T13:12:12;18.50;99.90
8820;DHT22;4446;50.876;4.736;2022-10-31T13:14:42;18.60;99.90
8820;DHT22;4446;50.876;4.736;2022-10-31T13:17:16;18.60;99.90
8820;DHT22;4446;50.876;4.736;2022-10-31T13:19:47;18.70;99.90
8820;DHT22;4446;50.876;4.736;2022-10-31T13:22:18;18.80;99.90
8820;DHT22;4446;50.876;4.736;2022-10-31T13:24:52;18.90;99.90
8820;DHT22;4446;50.876;4.736;2022-10-31T13:27:22;18.90;99.90
8820;DHT22;4446;50.876;4.736;2022-10-31T13:30:03;18.90;99.90
8820;DHT22;4446;50.876;4.736;2022-10-31T13:32:38;19.00;99.90
8820;DHT22;4446;50.876;4.736;2022-10-31T13:35:14;18.90;99.90
8820;DHT22;4446;50.876;4.736;2022-10-31T13:37:47;18.90;99.90
8820;DHT22;4446;50.876;4.736;2022-10-31T13:40:21;18.90;99.90
8820;DHT22;4446;50.876;4.736;2022-10-31T13:42:59;18.80;99.90
8820;DHT22;4446;50.876;4.736;2022-10-31T13:45:28;18.70;99.90
8820;DHT22;4446;50.876;4.736;2022-10-31T13:47:58;18.70;99.90
8820;DHT22;4446;50.876;4.736;2022-10-31T13:50:27;18.60;99.90
8820;DHT22;4446;50.876;4.736;2022-10-31T13:53:10;18.60;99.90
8820;DHT22;4446;50.876;4.736;2022-10-31T13:55:40;18.50;99.90
8820;DHT22;4446;50.876;4.736;2022-10-31T13:58:24;18.40;99.90
8820;DHT22;4446;50.876;4.736;2022-10-31T14:01:03;18.40;99.90
8820;DHT22;4446;50.876;4.736;2022-10-31T14:03:33;18.30;99.90
8820;DHT22;4446;50.876;4.736;2022-10-31T14:06:02;18.20;99.90
8820;DHT22;4446;50.876;4.736;2022-10-31T14:08:33;18.10;99.90
8820;DHT22;4446;50.876;4.736;2022-10-31T14:11:02;18.10;99.90
8820;DHT22;4446;50.876;4.736;2022-10-31T14:13:33;18.00;99.90
8820;DHT22;4446;50.876;4.736;2022-10-31T14:16:05;18.00;99.90
8820;DHT22;4446;50.876;4.736;2022-10-31T14:18:36;17.90;99.90
8820;DHT22;4446;50.876;4.736;2022-10-31T14:21:15;17.80;99.90
8820;DHT22;4446;50.876;4.736;2022-10-31T14:23:45;17.80;99.90
8820;DHT22;4446;50.876;4.736;2022-10-31T14:26:19;17.80;99.90
8820;DHT22;4446;50.876;4.736;2022-10-31T14:28:49;17.80;99.90
8820;DHT22;4446;50.876;4.736;2022-10-31T14:31:32;17.80;99.90
8820;DHT22;4446;50.876;4.736;2022-10-31T14:34:17;17.80;99.90
8820;DHT22;4446;50.876;4.736;2022-10-31T14:36:56;17.80;99.90
8820;DHT22;4446;50.876;4.736;2022-10-31T14:39:30;17.80;99.90
8820;DHT22;4446;50.876;4.736;2022-10-31T14:42:10;17.80;99.90
8820;DHT22;4446;50.876;4.736;2022-10-31T14:44:56;17.80;99.90
8820;DHT22;4446;50.876;4.736;2022-10-31T14:47:33;17.70;99.90
8820;DHT22;4446;50.876;4.736;2022-10-31T14:50:22;17.70;99.90
8820;DHT22;4446;50.876;4.736;2022-10-31T14:52:53;17.70;99.90
8820;DHT22;4446;50.876;4.736;2022-10-31T14:55:22;17.60;99.90
8820;DHT22;4446;50.876;4.736;2022-10-31T14:57:52;17.50;99.90
8820;DHT22;4446;50.876;4.736;2022-10-31T15:00:23;17.50;99.90
8820;DHT22;4446;50.876;4.736;2022-10-31T15:02:58;17.50;99.90
8820;DHT22;4446;50.876;4.736;2022-10-31T15:05:29;17.50;99.90
8820;DHT22;4446;50.876;4.736;2022-10-31T15:07:58;17.50;99.90
8820;DHT22;4446;50.876;4.736;2022-10-31T15:10:27;17.40;99.90
8820;DHT22;4446;50.876;4.736;2022-10-31T15:12:55;17.40;99.90
8820;DHT22;4446;50.876;4.736;2022-10-31T15:15:26;17.40;99.90
8820;DHT22;4446;50.876;4.736;2022-10-31T15:17:55;17.30;99.90
8820;DHT22;4446;50.876;4.736;2022-10-31T15:20:24;17.30;99.90
8820;DHT22;4446;50.876;4.736;2022-10-31T15:22:54;17.20;99.90
8820;DHT22;4446;50.876;4.736;2022-10-31T15:25:25;17.10;99.90
8820;DHT22;4446;50.876;4.736;2022-10-31T15:27:53;17.00;99.90
8820;DHT22;4446;50.876;4.736;2022-10-31T15:30:22;16.90;99.90
8820;DHT22;4446;50.876;4.736;2022-10-31T15:32:51;16.80;99.90
8820;DHT22;4446;50.876;4.736;2022-10-31T15:35:24;16.60;99.90
8820;DHT22;4446;50.876;4.736;2022-10-31T15:37:51;16.50;99.90
8820;DHT22;4446;50.876;4.736;2022-10-31T15:40:21;16.40;99.90
8820;DHT22;4446;50.876;4.736;2022-10-31T15:42:52;16.20;99.90
8820;DHT22;4446;50.876;4.736;2022-10-31T15:45:22;16.10;99.90
8820;DHT22;4446;50.876;4.736;2022-10-31T15:47:55;16.00;99.90
8820;DHT22;4446;50.876;4.736;2022-10-31T15:50:28;15.90;99.90
8820;DHT22;4446;50.876;4.736;2022-10-31T15:52:55;15.80;99.90
8820;DHT22;4446;50.876;4.736;2022-10-31T15:55:24;15.60;99.90
8820;DHT22;4446;50.876;4.736;2022-10-31T15:57:55;15.50;99.90
8820;DHT22;4446;50.876;4.736;2022-10-31T16:00:25;15.40;99.90
8820;DHT22;4446;50.876;4.736;2022-10-31T16:03:06;15.30;99.90
8820;DHT22;4446;50.876;4.736;2022-10-31T16:05:38;15.20;99.90
8820;DHT22;4446;50.876;4.736;2022-10-31T16:08:25;15.00;99.90
8820;DHT22;4446;50.876;4.736;2022-10-31T16:10:53;14.90;99.90
8820;DHT22;4446;50.876;4.736;2022-10-31T16:13:25;14.90;99.90
8820;DHT22;4446;50.876;4.736;2022-10-31T16:15:55;14.90;99.90
8820;DHT22;4446;50.876;4.736;2022-10-31T16:18:25;14.90;99.90
8820;DHT22;4446;50.876;4.736;2022-10-31T16:20:55;14.90;99.90
8820;DHT22;4446;50.876;4.736;2022-10-31T16:23:24;14.90;99.90
8820;DHT22;4446;50.876;4.736;2022-10-31T16:25:52;14.80;99.90
8820;DHT22;4446;50.876;4.736;2022-10-31T16:28:20;14.70;99.90
8820;DHT22;4446;50.876;4.736;2022-10-31T16:30:50;14.70;99.90
8820;DHT22;4446;50.876;4.736;2022-10-31T16:33:26;14.60;99.90